Terminal Aerodrome Forecast
Issued by NWS Detroit/Pontiac, MI

Home | Current Version | Previous Version | Text Only | Print | Product List | Glossary On
Versions: 1 2 3 4 5 6 7 8 9 10 11 12 13
000
FTUS43 KDTX 041127
TAFFNT
TAF
KFNT 041127Z 0412/0512 24010KT 6SM -SHRA OVC080
     FM041400 24013KT P6SM BKN080 OVC150
      TEMPO 0414/0418 3SM -RA SCT025 OVC040
     FM041800 30013KT P6SM BKN040
     FM042300 04008KT P6SM SCT080 BKN250
     FM050800 09005KT P6SM OVC100=

USA.gov is the U.S. government's official web portal to all federal, state and local government web resources and services.